createdAt,value
2018-03-01T00:00:37.815Z,23.98
2018-03-01T00:03:05.362Z,25.62
2018-03-01T00:05:33.681Z,17.92
2018-03-01T00:08:01.216Z,20.92
2018-03-01T00:10:28.775Z,31.70
2018-03-01T00:12:56.295Z,24.02
2018-03-01T00:15:23.829Z,30.80
2018-03-01T00:17:51.369Z,24.92
2018-03-01T00:20:18.932Z,23.60
2018-03-01T00:22:46.497Z,15.27
2018-03-01T00:25:14.028Z,12.50
2018-03-01T00:27:41.578Z,27.62
2018-03-01T00:30:09.893Z,25.12
2018-03-01T00:32:37.437Z,16.65
2018-03-01T00:35:04.989Z,10.07
2018-03-01T00:37:32.579Z,25.15
2018-03-01T00:40:00.867Z,22.40
2018-03-01T00:42:28.425Z,16.92
2018-03-01T00:44:55.962Z,14.55
2018-03-01T00:47:23.525Z,21.10
2018-03-01T00:49:51.091Z,18.27
2018-03-01T00:52:18.652Z,19.17
2018-03-01T00:54:46.194Z,17.05
2018-03-01T00:57:13.736Z,17.75
2018-03-01T00:59:41.348Z,12.93
2018-03-01T01:02:08.880Z,32.60
2018-03-01T01:04:36.415Z,26.73
2018-03-01T01:07:03.964Z,28.45
2018-03-01T01:09:32.281Z,17.92
2018-03-01T01:11:59.828Z,22.90
2018-03-01T01:14:27.358Z,25.40
2018-03-01T01:16:55.681Z,11.60
2018-03-01T01:19:23.224Z,15.40
2018-03-01T01:21:50.789Z,13.62
2018-03-01T01:24:18.370Z,23.65
2018-03-01T01:26:45.918Z,11.25
2018-03-01T01:29:13.453Z,21.30
2018-03-01T01:31:41.009Z,18.42
2018-03-01T01:34:08.558Z,27.10
2018-03-01T01:36:36.086Z,26.27
2018-03-01T01:39:03.690Z,18.75
2018-03-01T01:41:31.238Z,28.23
2018-03-01T01:43:58.796Z,16.10
2018-03-01T01:46:26.330Z,33.67
2018-03-01T01:48:54.660Z,17.17
2018-03-01T01:51:22.218Z,18.70
2018-03-01T01:53:49.767Z,13.38
2018-03-01T01:56:17.323Z,23.67
2018-03-01T01:58:44.873Z,25.23
2018-03-01T02:01:12.427Z,15.77
2018-03-01T02:03:39.982Z,30.42
2018-03-01T02:06:07.563Z,28.15
2018-03-01T02:08:35.113Z,34.60
2018-03-01T02:11:02.676Z,23.45
2018-03-01T02:13:30.219Z,17.77
2018-03-01T02:15:58.563Z,4.60
2018-03-01T02:18:26.100Z,20.45
2018-03-01T02:20:53.658Z,24.85
2018-03-01T02:23:21.238Z,23.87
2018-03-01T02:25:49.824Z,19.10
2018-03-01T02:28:17.388Z,20.73
2018-03-01T02:30:44.914Z,27.15
2018-03-01T02:33:12.465Z,26.20
2018-03-01T02:35:40.024Z,20.42
2018-03-01T02:38:07.586Z,20.17
2018-03-01T02:40:35.153Z,33.38
2018-03-01T02:43:02.709Z,23.98
2018-03-01T02:45:30.284Z,28.67
2018-03-01T02:47:57.849Z,37.10
2018-03-01T02:50:25.441Z,18.02
2018-03-01T02:52:53.761Z,23.85
2018-03-01T02:55:21.321Z,22.35
2018-03-01T02:57:48.864Z,31.05
2018-03-01T03:00:16.432Z,31.25
2018-03-01T03:02:44.002Z,21.65
2018-03-01T03:05:11.601Z,25.62
2018-03-01T03:07:39.137Z,22.73
2018-03-01T03:10:07.451Z,8.25
2018-03-01T03:12:35.767Z,17.85
2018-03-01T03:15:03.342Z,37.08
2018-03-01T03:17:30.907Z,10.82
2018-03-01T03:19:58.472Z,30.80
2018-03-01T03:22:26.033Z,14.70
2018-03-01T03:24:53.570Z,18.33
2018-03-01T03:27:21.166Z,17.70
2018-03-01T03:29:48.694Z,19.65
2018-03-01T03:32:16.228Z,30.08
2018-03-01T03:34:43.792Z,24.33
2018-03-01T03:37:11.326Z,23.23
2018-03-01T03:39:39.636Z,31.98
2018-03-01T03:42:07.154Z,22.70
2018-03-01T03:44:34.694Z,19.73
2018-03-01T03:47:02.241Z,25.25
2018-03-01T03:49:29.811Z,24.15
2018-03-01T03:51:57.357Z,28.33
2018-03-01T03:54:24.919Z,25.52
2018-03-01T03:56:52.483Z,32.88
2018-03-01T03:59:20.034Z,25.67
2018-03-01T04:01:47.590Z,19.83
2018-03-01T04:04:15.145Z,11.18
2018-03-01T04:06:42.720Z,27.20
2018-03-01T04:09:11.029Z,15.80
2018-03-01T04:11:39.359Z,22.85
2018-03-01T04:14:06.911Z,15.20
2018-03-01T04:16:34.475Z,30.48
2018-03-01T04:19:02.026Z,22.95
2018-03-01T04:21:29.575Z,31.77
2018-03-01T04:23:57.119Z,29.37
2018-03-01T04:26:25.441Z,28.17
2018-03-01T04:28:53.003Z,26.25
2018-03-01T04:31:20.547Z,29.65
2018-03-01T04:33:48.109Z,27.27
2018-03-01T04:36:15.671Z,27.77
2018-03-01T04:38:43.236Z,29.87
2018-03-01T04:41:10.754Z,15.05
2018-03-01T04:43:38.283Z,29.52
2018-03-01T04:46:05.938Z,24.83
2018-03-01T04:48:33.488Z,30.55
2018-03-01T04:51:01.062Z,23.75
2018-03-01T04:53:28.625Z,27.48
2018-03-01T04:55:56.173Z,26.52
2018-03-01T04:58:23.709Z,31.02
2018-03-01T05:00:51.260Z,25.08
2018-03-01T05:03:18.779Z,25.02
2018-03-01T05:05:47.103Z,28.83
2018-03-01T05:08:14.661Z,16.45
2018-03-01T05:10:42.202Z,24.83
2018-03-01T05:13:09.775Z,20.73
2018-03-01T05:15:38.098Z,29.12
2018-03-01T05:18:05.660Z,27.08
2018-03-01T05:20:33.960Z,18.95
2018-03-01T05:23:01.537Z,29.58
2018-03-01T05:25:29.083Z,29.33
2018-03-01T05:27:56.653Z,25.27
2018-03-01T05:30:24.202Z,30.98
2018-03-01T05:32:51.768Z,21.10
2018-03-01T05:35:19.977Z,25.50
2018-03-01T05:37:48.327Z,36.30
2018-03-01T05:40:15.883Z,34.92
2018-03-01T05:42:43.423Z,25.75
2018-03-01T05:45:10.990Z,27.33
2018-03-01T05:47:38.548Z,26.05
2018-03-01T05:50:06.089Z,26.23
2018-03-01T05:52:34.395Z,26.40
2018-03-01T05:55:02.013Z,25.95
2018-03-01T05:57:29.514Z,23.23
2018-03-01T05:59:57.056Z,27.10
2018-03-01T06:02:25.372Z,31.30
2018-03-01T06:04:52.908Z,23.40
2018-03-01T06:07:20.466Z,24.58
2018-03-01T06:09:48.018Z,30.40
2018-03-01T06:12:15.580Z,23.67
2018-03-01T06:14:43.125Z,31.70
2018-03-01T06:17:11.467Z,26.55
2018-03-01T06:19:39.034Z,29.60
2018-03-01T06:22:06.598Z,32.25
2018-03-01T06:24:34.165Z,26.90
2018-03-01T06:27:01.756Z,23.58
2018-03-01T06:29:29.323Z,33.75
2018-03-01T06:31:56.878Z,15.23
2018-03-01T06:34:24.436Z,27.50
2018-03-01T06:36:51.992Z,27.40
2018-03-01T06:39:19.569Z,26.20
2018-03-01T06:41:47.121Z,38.08
2018-03-01T06:44:14.718Z,33.42
2018-03-01T06:46:42.262Z,29.17
2018-03-01T06:49:09.867Z,41.63
2018-03-01T06:51:37.408Z,30.48
2018-03-01T06:54:04.973Z,26.35
2018-03-01T06:56:32.553Z,34.67
2018-03-01T06:59:00.896Z,28.67
2018-03-01T07:01:28.448Z,31.08
2018-03-01T07:03:55.999Z,21.08
2018-03-01T07:06:23.576Z,29.55
2018-03-01T07:08:51.132Z,17.75
2018-03-01T07:11:18.700Z,20.02
2018-03-01T07:13:46.261Z,26.30
2018-03-01T07:16:13.802Z,31.25
2018-03-01T07:18:41.365Z,37.65
2018-03-01T07:21:08.896Z,37.20
2018-03-01T07:23:36.455Z,24.83
2018-03-01T07:26:03.983Z,24.30
2018-03-01T07:28:32.321Z,30.12
2018-03-01T07:30:59.845Z,30.48
2018-03-01T07:33:27.406Z,23.45
2018-03-01T07:35:54.956Z,14.48
2018-03-01T07:38:22.505Z,10.32
2018-03-01T07:40:50.803Z,32.15
2018-03-01T07:43:19.481Z,29.40
2018-03-01T07:45:47.219Z,29.58
2018-03-01T07:48:14.806Z,14.80
2018-03-01T07:50:42.346Z,36.65
2018-03-01T07:53:10.665Z,30.55
2018-03-01T07:55:38.234Z,33.67
2018-03-01T07:58:05.783Z,27.40
2018-03-01T08:00:33.311Z,26.77
2018-03-01T08:03:01.634Z,38.42
2018-03-01T08:05:29.153Z,32.03
2018-03-01T08:07:56.920Z,27.40
2018-03-01T08:10:24.463Z,24.25
2018-03-01T08:12:52.787Z,30.88
2018-03-01T08:15:20.322Z,36.75
2018-03-01T08:17:47.876Z,34.10
2018-03-01T08:20:15.428Z,22.50
2018-03-01T08:22:42.965Z,31.77
2018-03-01T08:25:11.290Z,31.20
2018-03-01T08:27:38.815Z,33.38
2018-03-01T08:30:07.135Z,33.40
2018-03-01T08:32:34.693Z,18.02
2018-03-01T08:35:02.256Z,25.37
2018-03-01T08:37:29.818Z,34.08
2018-03-01T08:39:57.391Z,31.85
2018-03-01T08:42:24.950Z,35.92
2018-03-01T08:44:52.514Z,25.62
2018-03-01T08:47:20.053Z,33.85
2018-03-01T08:49:47.592Z,33.13
2018-03-01T08:52:15.147Z,30.92
2018-03-01T08:54:42.675Z,30.92
2018-03-01T08:57:11.001Z,37.25
2018-03-01T08:59:38.545Z,34.80
2018-03-01T09:02:06.396Z,33.95
2018-03-01T09:04:33.940Z,39.55
2018-03-01T09:07:02.277Z,37.55
2018-03-01T09:09:29.856Z,30.67
2018-03-01T09:11:57.381Z,33.92
2018-03-01T09:14:24.961Z,40.42
2018-03-01T09:16:52.504Z,35.13
2018-03-01T09:19:20.041Z,29.02
2018-03-01T09:21:47.600Z,30.77
2018-03-01T09:24:15.172Z,36.22
2018-03-01T09:26:42.705Z,28.40
2018-03-01T09:29:11.005Z,32.55
2018-03-01T09:31:38.526Z,36.00
2018-03-01T09:34:06.858Z,42.60
2018-03-01T09:36:34.408Z,35.85
2018-03-01T09:39:01.931Z,31.27
2018-03-01T09:41:30.247Z,36.15
2018-03-01T09:43:57.761Z,31.95
2018-03-01T09:46:26.067Z,33.20
2018-03-01T09:48:53.647Z,33.58
2018-03-01T09:51:21.208Z,41.20
2018-03-01T09:53:48.741Z,33.72
2018-03-01T09:56:16.333Z,37.75
2018-03-01T09:58:43.887Z,33.50
2018-03-01T10:01:11.430Z,33.50
2018-03-01T10:03:39.003Z,32.70
2018-03-01T10:06:06.572Z,34.17
2018-03-01T10:08:34.132Z,32.22
2018-03-01T10:11:01.650Z,39.85
2018-03-01T10:13:29.199Z,28.55
2018-03-01T10:15:56.758Z,32.28
2018-03-01T10:18:25.057Z,41.08
2018-03-01T10:20:52.578Z,42.90
2018-03-01T10:23:21.276Z,32.22
2018-03-01T10:25:48.859Z,39.70
2018-03-01T10:28:16.391Z,35.17
2018-03-01T10:30:44.709Z,37.47
2018-03-01T10:33:12.246Z,35.85
2018-03-01T10:35:39.797Z,50.92
2018-03-01T10:38:08.093Z,33.38
2018-03-01T10:40:35.652Z,35.90
2018-03-01T10:43:03.193Z,32.33
2018-03-01T10:45:30.765Z,33.50
2018-03-01T10:47:58.289Z,45.45
2018-03-01T10:50:25.820Z,33.33
2018-03-01T10:52:53.377Z,41.53
2018-03-01T10:55:20.924Z,36.50
2018-03-01T10:57:49.255Z,31.83
2018-03-01T11:00:23.171Z,40.47
2018-03-01T11:02:51.514Z,39.67
2018-03-01T11:05:19.067Z,32.65
2018-03-01T11:07:46.622Z,36.45
2018-03-01T11:10:14.175Z,34.35
2018-03-01T11:12:41.756Z,44.47
2018-03-01T11:15:09.294Z,36.50
2018-03-01T11:17:36.815Z,35.88
2018-03-01T11:20:04.411Z,46.30
2018-03-01T11:22:31.952Z,37.72
2018-03-01T11:24:59.495Z,32.28
2018-03-01T11:27:27.028Z,30.37
2018-03-01T11:29:55.368Z,48.60
2018-03-01T11:32:22.933Z,27.58
2018-03-01T11:34:50.512Z,22.13
2018-03-01T11:37:18.080Z,28.80
2018-03-01T11:39:46.390Z,45.72
2018-03-01T11:42:13.933Z,37.78
2018-03-01T11:44:42.235Z,31.05
2018-03-01T11:47:09.792Z,40.70
2018-03-01T11:49:37.799Z,40.22
2018-03-01T11:52:05.356Z,39.67
2018-03-01T11:54:32.905Z,35.10
2018-03-01T11:57:00.486Z,35.95
2018-03-01T11:59:28.013Z,29.10
2018-03-01T12:01:55.570Z,39.40
2018-03-01T12:04:23.095Z,45.33
2018-03-01T12:06:51.409Z,40.50
2018-03-01T12:09:18.944Z,22.35
2018-03-01T12:11:46.508Z,29.98
2018-03-01T12:14:14.063Z,36.70
2018-03-01T12:16:41.604Z,40.72
2018-03-01T12:19:09.914Z,23.10
2018-03-01T12:21:37.436Z,42.00
2018-03-01T12:24:05.753Z,42.00
2018-03-01T12:26:33.272Z,37.70
2018-03-01T12:29:01.589Z,41.45
2018-03-01T12:31:29.145Z,51.20
2018-03-01T12:33:56.677Z,44.75
2018-03-01T12:36:25.009Z,36.13
2018-03-01T12:38:52.529Z,40.33
2018-03-01T12:41:20.070Z,39.67
2018-03-01T12:43:48.387Z,42.62
2018-03-01T12:46:15.935Z,30.48
2018-03-01T12:48:43.487Z,23.52
2018-03-01T12:51:11.060Z,45.33
2018-03-01T12:53:38.588Z,40.67
2018-03-01T12:56:06.152Z,42.42
2018-03-01T12:58:33.724Z,43.45
2018-03-01T13:01:01.267Z,44.47
2018-03-01T13:03:28.836Z,35.08
2018-03-01T13:05:56.364Z,32.63
2018-03-01T13:08:24.704Z,38.17
2018-03-01T13:10:52.245Z,36.83
2018-03-01T13:13:19.830Z,40.25
2018-03-01T13:15:48.140Z,39.40
2018-03-01T13:18:15.690Z,38.80
2018-03-01T13:20:43.270Z,32.03
2018-03-01T13:23:11.568Z,33.63
2018-03-01T13:25:39.134Z,34.80
2018-03-01T13:28:06.665Z,46.88
2018-03-01T13:30:44.914Z,41.53
2018-03-01T13:33:18.137Z,42.28
2018-03-01T13:35:45.686Z,36.17
2018-03-01T13:38:13.224Z,50.45
2018-03-01T13:40:40.783Z,40.08
2018-03-01T13:43:08.323Z,41.50
2018-03-01T13:45:38.574Z,32.00
2018-03-01T13:48:06.117Z,45.65
2018-03-01T13:50:33.666Z,45.63
2018-03-01T13:53:01.216Z,38.97
2018-03-01T13:55:28.743Z,41.70
2018-03-01T13:57:56.286Z,38.05
2018-03-01T14:00:23.799Z,50.08
2018-03-01T14:02:51.386Z,38.65
2018-03-01T14:05:18.929Z,39.58
2018-03-01T14:08:01.377Z,42.40
2018-03-01T14:10:28.906Z,32.75
2018-03-01T14:16:03.080Z,42.72
2018-03-01T14:18:36.456Z,36.00
2018-03-01T14:24:11.336Z,35.03
2018-03-01T14:29:52.878Z,35.42
2018-03-01T14:32:20.425Z,42.55
2018-03-01T14:34:48.721Z,34.83
2018-03-01T14:37:16.296Z,24.05
2018-03-01T14:39:43.842Z,38.65
2018-03-01T14:42:11.400Z,39.58
2018-03-01T14:44:38.920Z,35.60
2018-03-01T14:47:06.462Z,45.40
2018-03-01T14:49:34.006Z,42.80
2018-03-01T14:52:01.580Z,37.08
2018-03-01T14:54:29.119Z,41.20
2018-03-01T14:56:56.665Z,35.38
2018-03-01T14:59:24.236Z,31.12
2018-03-01T15:01:51.788Z,36.00
2018-03-01T15:04:19.360Z,40.40
2018-03-01T15:06:46.895Z,39.33
2018-03-01T15:09:14.455Z,41.03
2018-03-01T15:11:42.007Z,35.35
2018-03-01T15:14:09.555Z,38.28
2018-03-01T15:16:37.100Z,44.70
2018-03-01T15:19:05.432Z,46.40
2018-03-01T15:21:32.958Z,30.88
2018-03-01T15:24:00.503Z,33.20
2018-03-01T15:26:28.082Z,41.22
2018-03-01T15:28:55.601Z,39.42
2018-03-01T15:31:23.135Z,33.42
2018-03-01T15:33:50.688Z,32.25
2018-03-01T15:36:18.283Z,36.55
2018-03-01T15:38:46.596Z,33.17
2018-03-01T15:41:14.147Z,41.63
2018-03-01T15:43:41.673Z,31.35
2018-03-01T15:46:09.209Z,37.55
2018-03-01T15:48:36.764Z,37.65
2018-03-01T15:51:04.286Z,41.45
2018-03-01T15:53:31.852Z,35.50
2018-03-01T15:55:59.416Z,38.50
2018-03-01T15:58:26.968Z,29.20
2018-03-01T16:00:54.506Z,35.55
2018-03-01T16:03:22.832Z,36.28
2018-03-01T16:05:50.356Z,31.20
2018-03-01T16:08:17.917Z,37.92
2018-03-01T16:10:45.452Z,23.73
2018-03-01T16:13:13.745Z,37.40
2018-03-01T16:15:41.310Z,37.55
2018-03-01T16:18:08.852Z,34.03
2018-03-01T16:20:37.184Z,34.08
2018-03-01T16:23:04.710Z,34.17
2018-03-01T16:25:32.267Z,34.78
2018-03-01T16:27:59.787Z,35.53
2018-03-01T16:30:27.345Z,37.72
2018-03-01T16:32:54.878Z,29.90
2018-03-01T16:35:22.409Z,34.00
2018-03-01T16:37:49.959Z,28.83
2018-03-01T16:40:17.507Z,30.60
2018-03-01T16:42:45.808Z,29.67
2018-03-01T16:45:13.328Z,39.83
2018-03-01T16:47:41.633Z,31.87
2018-03-01T16:50:09.184Z,40.12
2018-03-01T16:52:36.727Z,29.40
2018-03-01T16:55:05.025Z,32.42
2018-03-01T16:57:32.564Z,32.60
2018-03-01T17:00:00.884Z,31.87
2018-03-01T17:02:28.423Z,36.75
2018-03-01T17:04:55.980Z,31.83
2018-03-01T17:07:23.528Z,41.20
2018-03-01T17:09:51.861Z,38.03
2018-03-01T17:12:19.426Z,39.90
2018-03-01T17:14:46.983Z,38.97
2018-03-01T17:17:14.540Z,38.38
2018-03-01T17:19:42.102Z,26.15
2018-03-01T17:22:09.656Z,39.20
2018-03-01T17:24:37.189Z,48.40
2018-03-01T17:27:04.765Z,35.95
2018-03-01T17:29:32.320Z,34.50
2018-03-01T17:31:59.885Z,36.45
2018-03-01T17:34:27.424Z,37.08
2018-03-01T17:36:54.979Z,31.95
2018-03-01T17:39:22.542Z,33.33
2018-03-01T17:41:50.100Z,42.22
2018-03-01T17:44:17.655Z,35.90
2018-03-01T17:46:45.216Z,35.00
2018-03-01T17:49:12.781Z,34.38
2018-03-01T17:51:40.322Z,35.58
2018-03-01T17:54:07.875Z,41.13
2018-03-01T17:56:36.172Z,40.22
2018-03-01T17:59:03.715Z,30.10
2018-03-01T18:01:32.032Z,36.70
2018-03-01T18:03:59.596Z,29.75
2018-03-01T18:06:27.149Z,38.53
2018-03-01T18:08:54.705Z,34.30
2018-03-01T18:11:22.247Z,38.85
2018-03-01T18:13:49.975Z,33.88
2018-03-01T18:16:18.309Z,39.65
2018-03-01T18:18:46.833Z,53.38
2018-03-01T18:21:14.404Z,37.00
2018-03-01T18:23:42.698Z,35.60
2018-03-01T18:26:10.248Z,37.15
2018-03-01T18:28:38.539Z,50.40
2018-03-01T18:31:06.099Z,39.75
2018-03-01T18:33:33.670Z,37.28
2018-03-01T18:36:01.203Z,45.25
2018-03-01T18:38:28.755Z,41.78
2018-03-01T18:40:57.079Z,45.03
2018-03-01T18:43:24.635Z,43.87
2018-03-01T18:45:52.167Z,48.97
2018-03-01T18:48:19.743Z,37.10
2018-03-01T18:50:47.308Z,34.50
2018-03-01T18:53:14.864Z,47.78
2018-03-01T18:55:42.422Z,141.15
2018-03-01T18:58:09.979Z,38.88
2018-03-01T19:00:37.537Z,38.97
2018-03-01T19:03:05.088Z,47.03
2018-03-01T19:05:32.641Z,41.35
2018-03-01T19:08:00.189Z,39.90
2018-03-01T19:10:28.521Z,41.15
2018-03-01T19:12:56.051Z,32.85
2018-03-01T19:15:23.589Z,31.08
2018-03-01T19:17:51.154Z,33.83
2018-03-01T19:20:18.716Z,42.40
2018-03-01T19:22:46.271Z,37.22
2018-03-01T19:25:13.823Z,48.28
2018-03-01T19:27:42.144Z,51.65
2018-03-01T19:30:09.694Z,37.88
2018-03-01T19:32:37.270Z,39.95
2018-03-01T19:35:04.809Z,37.20
2018-03-01T19:37:32.359Z,38.20
2018-03-01T19:39:59.906Z,34.88
2018-03-01T19:42:27.475Z,49.47
2018-03-01T19:44:55.034Z,39.20
2018-03-01T19:47:22.578Z,43.22
2018-03-01T19:49:50.166Z,43.17
2018-03-01T19:52:17.713Z,41.30
2018-03-01T19:54:45.260Z,49.95
2018-03-01T19:57:12.822Z,36.35
2018-03-01T19:59:40.393Z,49.63
2018-03-01T20:02:07.921Z,37.92
2018-03-01T20:04:36.249Z,41.25
2018-03-01T20:07:03.787Z,38.95
2018-03-01T20:09:31.338Z,45.10
2018-03-01T20:11:58.865Z,42.45
2018-03-01T20:14:26.389Z,45.55
2018-03-01T20:16:53.937Z,42.25
2018-03-01T20:19:21.497Z,35.33
2018-03-01T20:21:49.058Z,43.17
2018-03-01T20:24:16.636Z,48.15
2018-03-01T20:26:44.475Z,39.28
2018-03-01T20:29:12.018Z,40.83
2018-03-01T20:31:39.582Z,53.55
2018-03-01T20:34:07.101Z,47.30
2018-03-01T20:36:34.620Z,46.05
2018-03-01T20:39:02.188Z,43.22
2018-03-01T20:41:29.737Z,45.45
2018-03-01T20:43:57.288Z,49.17
2018-03-01T20:46:24.852Z,33.75
2018-03-01T20:48:52.417Z,51.88
2018-03-01T20:51:19.960Z,40.03
2018-03-01T20:53:47.532Z,43.95
2018-03-01T20:56:15.051Z,41.53
2018-03-01T20:58:43.375Z,42.40
2018-03-01T21:01:10.905Z,51.72
2018-03-01T21:03:38.457Z,48.17
2018-03-01T21:06:06.798Z,43.95
2018-03-01T21:08:34.346Z,51.92
2018-03-01T21:11:01.912Z,50.05
2018-03-01T21:13:29.445Z,43.28
2018-03-01T21:15:56.998Z,45.00
2018-03-01T21:18:24.527Z,47.38
2018-03-01T21:20:52.843Z,44.80
2018-03-01T21:23:20.397Z,50.38
2018-03-01T21:25:47.930Z,48.65
2018-03-01T21:28:15.480Z,52.75
2018-03-01T21:30:43.797Z,43.45
2018-03-01T21:33:11.347Z,46.97
2018-03-01T21:35:38.897Z,46.50
2018-03-01T21:38:06.431Z,42.38
2018-03-01T21:40:34.742Z,45.05
2018-03-01T21:43:02.297Z,54.58
2018-03-01T21:45:29.863Z,53.75
2018-03-01T21:47:57.449Z,43.95
2018-03-01T21:50:25.022Z,46.33
2018-03-01T21:52:52.567Z,44.20
2018-03-01T21:55:20.138Z,40.70
2018-03-01T21:57:47.688Z,48.83
2018-03-01T22:00:15.267Z,47.65
2018-03-01T22:02:42.808Z,46.35
2018-03-01T22:05:12.067Z,46.80
2018-03-01T22:07:39.613Z,41.47
2018-03-01T22:10:07.942Z,49.55
2018-03-01T22:12:35.482Z,53.00
2018-03-01T22:15:03.011Z,41.53
2018-03-01T22:17:31.328Z,58.28
2018-03-01T22:19:58.866Z,43.95
2018-03-01T22:22:26.427Z,43.40
2018-03-01T22:24:53.984Z,46.17
2018-03-01T22:27:21.541Z,38.13
2018-03-01T22:29:49.102Z,51.42
2018-03-01T22:32:16.672Z,54.15
2018-03-01T22:34:44.211Z,52.25
2018-03-01T22:37:11.780Z,55.65
2018-03-01T22:39:39.329Z,38.92
2018-03-01T22:42:06.854Z,43.65
2018-03-01T22:44:34.405Z,47.90
2018-03-01T22:47:01.957Z,54.67
2018-03-01T22:49:29.540Z,44.83
2018-03-01T22:51:57.853Z,52.53
2018-03-01T22:54:25.423Z,49.58
2018-03-01T22:56:53.032Z,45.58
2018-03-01T22:59:20.590Z,52.17
2018-03-01T23:01:48.898Z,48.42
2018-03-01T23:04:16.452Z,53.00
2018-03-01T23:06:44.769Z,46.28
2018-03-01T23:09:12.304Z,60.05
2018-03-01T23:11:39.855Z,54.33
2018-03-01T23:14:07.405Z,47.20
2018-03-01T23:16:34.968Z,55.17
2018-03-01T23:19:02.768Z,51.53
2018-03-01T23:21:30.343Z,54.08
2018-03-01T23:23:57.877Z,50.10
2018-03-01T23:26:25.408Z,51.67
2018-03-01T23:28:53.720Z,48.60
2018-03-01T23:31:21.270Z,55.78
2018-03-01T23:33:48.822Z,50.03
2018-03-01T23:36:16.368Z,50.92
2018-03-01T23:38:43.912Z,58.65
2018-03-01T23:41:12.212Z,47.47
2018-03-01T23:43:39.763Z,45.12
2018-03-01T23:46:07.314Z,43.22
2018-03-01T23:48:34.885Z,53.08
2018-03-01T23:51:02.428Z,58.03
2018-03-01T23:53:30.728Z,55.05
2018-03-01T23:55:58.270Z,48.25
2018-03-01T23:58:26.562Z,52.70
